Time;durP1;ratioP1;P1;durP2;ratioP2;P2;SDS_P1;SDS_P2;PMS_P1;PMS_P2;Temp;Humidity;BMP_temperature;BMP_pressure;BME280_temperature;BME280_humidity;BME280_pressure;Samples;Min_cycle;Max_cycle;Signal;HPM_P1;HPM_P2
2023/03/11 06:00:28;;;;;;;2.90;1.30;;;2.90;97.20;;;;;;1708283;29;20303;-63
2023/03/11 06:01:19;;;;;;;2.83;1.30;;;2.80;97.20;;;;;;1708189;28;20230;-62
2023/03/11 06:02:11;;;;;;;4.45;1.98;;;2.80;97.20;;;;;;1708269;28;20206;-63
2023/03/11 06:03:02;;;;;;;3.05;1.40;;;2.80;97.20;;;;;;1708010;28;20578;-63
2023/03/11 06:03:53;;;;;;;4.27;1.77;;;2.80;97.20;;;;;;1708346;28;20580;-62
2023/03/11 06:04:44;;;;;;;4.13;1.60;;;2.90;97.20;;;;;;1708269;28;21146;-62
2023/03/11 06:05:36;;;;;;;3.50;1.60;;;2.90;97.20;;;;;;1712369;28;20580;-62
2023/03/11 06:06:27;;;;;;;1.85;1.20;;;2.90;97.20;;;;;;1714859;28;20445;-63
2023/03/11 06:07:19;;;;;;;2.05;1.20;;;2.90;97.20;;;;;;1714820;28;20197;-64
2023/03/11 06:08:10;;;;;;;3.65;1.40;;;2.90;97.20;;;;;;1714965;28;20230;-63
2023/03/11 06:09:02;;;;;;;2.50;1.50;;;2.90;97.20;;;;;;1714732;28;20208;-62
2023/03/11 06:09:53;;;;;;;3.38;1.52;;;2.90;97.20;;;;;;1714869;28;20618;-63
2023/03/11 06:10:45;;;;;;;3.10;1.47;;;2.90;97.20;;;;;;1714729;28;20243;-63
2023/03/11 06:11:36;;;;;;;2.50;1.40;;;2.90;97.20;;;;;;1712855;28;20214;-63
2023/03/11 06:12:27;;;;;;;4.57;1.70;;;2.90;97.20;;;;;;1708047;28;20191;-63
2023/03/11 06:13:18;;;;;;;2.72;1.50;;;2.90;97.20;;;;;;1707875;29;20198;-63
2023/03/11 06:14:12;;;;;;;2.87;1.67;;;2.90;97.20;;;;;;1707899;29;20195;-63
2023/03/11 06:15:03;;;;;;;3.50;1.33;;;2.90;97.20;;;;;;1705666;28;20458;-62
2023/03/11 06:15:57;;;;;;;2.55;1.73;;;3.00;97.20;;;;;;1704485;29;20227;-63
2023/03/11 06:16:47;;;;;;;2.90;1.50;;;3.00;97.20;;;;;;1705448;28;20211;-63
2023/03/11 06:17:39;;;;;;;4.30;1.57;;;3.00;97.20;;;;;;1704430;28;20717;-63
2023/03/11 06:18:30;;;;;;;4.30;1.55;;;3.00;97.20;;;;;;1703761;29;20204;-62
2023/03/11 06:19:21;;;;;;;3.97;1.47;;;3.00;97.20;;;;;;1700777;29;20203;-64
2023/03/11 06:20:12;;;;;;;4.70;1.60;;;3.00;97.20;;;;;;1701241;29;20204;-63
2023/03/11 06:21:04;;;;;;;6.27;1.87;;;3.10;97.20;;;;;;1701436;29;20207;-62
2023/03/11 06:21:55;;;;;;;3.20;1.70;;;3.10;97.20;;;;;;1703731;29;20211;-62
2023/03/11 06:22:48;;;;;;;3.83;1.93;;;3.10;97.20;;;;;;1707918;29;20203;-62
2023/03/11 06:23:39;;;;;;;2.65;1.92;;;3.20;97.20;;;;;;1708199;29;20213;-63
2023/03/11 06:24:31;;;;;;;4.30;2.20;;;3.20;97.20;;;;;;1708049;29;20199;-61
2023/03/11 06:25:22;;;;;;;7.18;3.28;;;3.20;97.20;;;;;;1708154;29;20206;-62
2023/03/11 06:26:15;;;;;;;4.40;2.28;;;3.20;97.20;;;;;;1708099;29;20240;-63
2023/03/11 06:27:08;;;;;;;2.97;1.70;;;3.20;97.20;;;;;;1708032;29;20588;-63
2023/03/11 06:27:59;;;;;;;3.13;1.92;;;3.20;97.20;;;;;;1708172;29;20245;-63
2023/03/11 06:28:51;;;;;;;4.28;1.85;;;3.20;97.20;;;;;;1708033;29;20230;-63
2023/03/11 06:29:43;;;;;;;5.10;1.77;;;3.30;97.20;;;;;;1708013;29;20720;-63
2023/03/11 06:30:34;;;;;;;4.90;1.92;;;3.30;97.20;;;;;;1707907;29;20238;-63
2023/03/11 06:31:28;;;;;;;3.10;1.50;;;3.30;97.20;;;;;;1707744;29;20199;-63
2023/03/11 06:32:19;;;;;;;4.07;1.70;;;3.30;97.20;;;;;;1708113;28;20206;-63
2023/03/11 06:33:13;;;;;;;4.50;1.80;;;3.30;97.20;;;;;;1707626;28;20202;-63
2023/03/11 06:34:05;;;;;;;3.88;1.48;;;3.30;97.20;;;;;;1704435;28;21754;-62
2023/03/11 06:34:56;;;;;;;4.03;1.60;;;3.40;97.20;;;;;;1704883;29;20206;-63
2023/03/11 06:35:55;;;;;;;2.45;1.58;;;3.40;97.20;;;;;;1704692;28;20203;-63
2023/03/11 06:36:47;;;;;;;4.47;1.55;;;3.40;97.20;;;;;;1703625;29;20207;-63
2023/03/11 06:37:38;;;;;;;2.05;1.50;;;3.50;97.20;;;;;;1705135;28;20618;-62
2023/03/11 06:38:30;;;;;;;3.33;1.50;;;3.50;97.20;;;;;;1705179;28;20595;-63
2023/03/11 06:39:20;;;;;;;1.95;1.42;;;3.50;97.20;;;;;;1703758;28;20661;-63
2023/03/11 06:40:14;;;;;;;3.10;1.53;;;3.60;97.20;;;;;;1703469;28;20681;-63
2023/03/11 06:41:05;;;;;;;2.20;1.27;;;3.50;97.20;;;;;;1707121;29;20238;-63
2023/03/11 06:41:57;;;;;;;3.55;1.65;;;3.50;97.20;;;;;;1707544;29;20207;-63
2023/03/11 06:42:48;;;;;;;5.07;1.80;;;3.60;97.20;;;;;;1706476;28;20587;-63
2023/03/11 06:43:40;;;;;;;3.27;1.70;;;3.60;97.20;;;;;;1704991;28;20199;-64
2023/03/11 06:44:30;;;;;;;5.95;1.80;;;3.60;97.20;;;;;;1703674;28;20199;-63
2023/03/11 06:45:23;;;;;;;3.60;2.13;;;3.60;97.20;;;;;;1703570;29;20194;-64
2023/03/11 06:46:15;;;;;;;4.45;2.08;;;3.60;97.20;;;;;;1705298;29;20205;-63
2023/03/11 06:47:08;;;;;;;3.97;1.77;;;3.70;97.20;;;;;;1704253;28;20209;-63
2023/03/11 06:47:59;;;;;;;4.38;1.50;;;3.70;97.20;;;;;;1703600;29;20210;-63
2023/03/11 06:48:51;;;;;;;6.47;1.87;;;3.70;97.20;;;;;;1706185;29;20202;-62
2023/03/11 06:49:43;;;;;;;7.88;1.75;;;3.70;97.20;;;;;;1703670;29;20728;-63
2023/03/11 06:50:34;;;;;;;2.80;1.30;;;3.70;97.20;;;;;;1704590;28;20221;-63
2023/03/11 06:51:25;;;;;;;3.67;1.70;;;3.80;97.20;;;;;;1707008;28;20221;-63
2023/03/11 06:52:17;;;;;;;3.10;2.10;;;3.80;97.20;;;;;;1704931;28;20217;-63
2023/03/11 06:53:08;;;;;;;4.10;2.70;;;3.90;97.20;;;;;;1703825;28;20195;-63
2023/03/11 06:53:59;;;;;;;5.43;3.20;;;3.90;97.20;;;;;;1704428;29;20207;-63
2023/03/11 06:54:50;;;;;;;4.05;3.00;;;4.00;97.20;;;;;;1707683;28;20222;-63
2023/03/11 06:55:42;;;;;;;5.07;2.73;;;4.00;97.20;;;;;;1706544;28;20208;-63
2023/03/11 06:56:33;;;;;;;5.05;3.60;;;4.10;97.20;;;;;;1706852;29;20227;-63
2023/03/11 06:57:25;;;;;;;6.47;2.25;;;4.10;97.20;;;;;;1707919;29;20636;-63
2023/03/11 06:58:17;;;;;;;5.05;1.98;;;4.20;97.20;;;;;;1707929;29;20265;-63
2023/03/11 06:59:09;;;;;;;4.40;1.65;;;4.20;97.20;;;;;;1707828;28;20225;-63
2023/03/11 06:59:59;;;;;;;3.33;1.60;;;4.30;97.20;;;;;;1707829;29;20245;-63
2023/03/11 07:00:51;;;;;;;2.73;1.90;;;4.30;97.20;;;;;;1707641;29;20225;-63
2023/03/11 07:01:43;;;;;;;5.80;1.83;;;4.30;97.20;;;;;;1707483;29;20218;-63
2023/03/11 07:02:35;;;;;;;2.17;1.50;;;4.40;97.20;;;;;;1707657;29;20206;-63
2023/03/11 07:03:26;;;;;;;4.25;1.50;;;4.40;97.20;;;;;;1707870;28;20215;-63
2023/03/11 07:04:17;;;;;;;3.92;1.40;;;4.40;97.20;;;;;;1707834;29;20206;-63
2023/03/11 07:05:11;;;;;;;2.93;1.80;;;4.40;97.20;;;;;;1706135;28;20209;-63
2023/03/11 07:06:02;;;;;;;2.40;1.52;;;4.40;97.20;;;;;;1705950;29;20548;-63
2023/03/11 07:06:53;;;;;;;3.20;1.80;;;4.50;97.20;;;;;;1703746;29;20698;-63
2023/03/11 07:07:44;;;;;;;3.25;1.85;;;4.50;97.20;;;;;;1701150;29;20462;-63
2023/03/11 07:08:36;;;;;;;2.30;2.10;;;4.50;97.20;;;;;;1701286;29;20199;-63
2023/03/11 07:09:28;;;;;;;3.05;1.60;;;4.60;97.20;;;;;;1701148;29;20594;-63
2023/03/11 07:10:20;;;;;;;5.15;2.35;;;4.70;97.20;;;;;;1701073;29;20202;-62
2023/03/11 07:11:13;;;;;;;3.50;1.88;;;4.70;97.20;;;;;;1701196;29;20203;-63
2023/03/11 07:12:05;;;;;;;4.53;2.00;;;4.80;97.20;;;;;;1701189;29;20262;-63
2023/03/11 07:12:56;;;;;;;2.97;1.60;;;4.90;97.20;;;;;;1700940;29;20628;-63
2023/03/11 07:13:48;;;;;;;3.40;1.80;;;5.00;97.20;;;;;;1701073;29;20206;-62
2023/03/11 07:14:38;;;;;;;2.90;1.60;;;5.10;97.20;;;;;;1703794;29;20202;-63
2023/03/11 07:15:30;;;;;;;3.70;1.53;;;5.10;97.20;;;;;;1707684;28;20209;-63
2023/03/11 07:16:23;;;;;;;3.88;2.40;;;5.20;97.20;;;;;;1707678;28;20214;-62
2023/03/11 07:17:14;;;;;;;4.20;1.90;;;5.30;97.20;;;;;;1707962;28;20649;-63
2023/03/11 07:18:06;;;;;;;2.45;1.77;;;5.30;97.20;;;;;;1707710;28;20214;-65
2023/03/11 07:19:02;;;;;;;3.17;1.80;;;5.50;97.20;;;;;;1707426;28;20202;-65
2023/03/11 07:19:53;;;;;;;4.22;1.80;;;5.60;97.20;;;;;;1707849;28;20569;-65
2023/03/11 07:20:44;;;;;;;2.22;1.40;;;5.60;97.20;;;;;;1707372;28;20233;-65
2023/03/11 07:21:35;;;;;;;4.13;1.40;;;5.80;97.20;;;;;;1707683;28;20676;-65
2023/03/11 07:22:27;;;;;;;3.80;1.53;;;5.80;97.20;;;;;;1707740;28;20667;-65
2023/03/11 07:23:17;;;;;;;4.35;1.63;;;6.00;97.20;;;;;;1706675;28;20206;-64
2023/03/11 07:24:12;;;;;;;3.00;2.03;;;6.00;97.20;;;;;;1707493;29;20209;-65
2023/03/11 07:25:04;;;;;;;4.45;1.67;;;6.10;97.20;;;;;;1707672;28;20245;-65
2023/03/11 07:25:56;;;;;;;4.93;1.80;;;6.20;97.20;;;;;;1707794;28;20340;-65
2023/03/11 07:26:47;;;;;;;6.50;1.70;;;6.20;97.20;;;;;;1707682;29;20213;-65
2023/03/11 07:27:38;;;;;;;4.27;1.70;;;6.30;97.20;;;;;;1707742;29;20213;-65
2023/03/11 07:28:29;;;;;;;4.25;1.35;;;6.30;97.20;;;;;;1707676;28;20442;-65
2023/03/11 07:29:21;;;;;;;3.73;1.53;;;6.30;97.20;;;;;;1707654;29;20198;-65
2023/03/11 07:30:12;;;;;;;3.65;1.50;;;6.40;97.20;;;;;;1707624;29;20454;-65
2023/03/11 07:31:08;;;;;;;4.65;1.42;;;6.40;97.20;;;;;;1707283;28;20246;-65
2023/03/11 07:31:59;;;;;;;4.63;1.63;;;6.40;97.20;;;;;;1707674;28;20214;-66
2023/03/11 07:32:50;;;;;;;5.40;1.40;;;6.40;97.20;;;;;;1707389;28;20209;-65
2023/03/11 07:33:43;;;;;;;3.33;1.40;;;6.40;97.20;;;;;;1707758;28;20236;-65
2023/03/11 07:34:34;;;;;;;3.40;1.20;;;6.40;97.20;;;;;;1707611;28;20301;-64
2023/03/11 07:35:25;;;;;;;5.70;1.98;;;6.40;97.20;;;;;;1707649;28;20206;-65
2023/03/11 07:36:18;;;;;;;2.80;1.57;;;6.40;97.20;;;;;;1707538;28;20198;-65
2023/03/11 07:37:09;;;;;;;6.47;2.70;;;6.40;97.20;;;;;;1707568;28;20210;-64
2023/03/11 07:38:01;;;;;;;4.30;2.50;;;6.40;97.20;;;;;;1707661;28;20210;-64
2023/03/11 07:38:57;;;;;;;5.60;2.00;;;6.40;97.20;;;;;;1707618;28;20202;-65
2023/03/11 07:39:48;;;;;;;3.15;2.35;;;6.40;97.20;;;;;;1707603;28;20209;-65
2023/03/11 07:40:39;;;;;;;4.40;2.50;;;6.50;97.20;;;;;;1703696;28;20234;-65
2023/03/11 07:41:32;;;;;;;4.70;1.80;;;6.50;97.20;;;;;;1704797;29;20197;-65
2023/03/11 07:42:23;;;;;;;5.47;2.20;;;6.50;97.20;;;;;;1700833;29;20203;-65
2023/03/11 07:43:15;;;;;;;3.70;2.93;;;6.50;97.20;;;;;;1700532;29;20203;-66
2023/03/11 07:44:05;;;;;;;3.83;1.80;;;6.50;97.20;;;;;;1700701;29;20294;-66
2023/03/11 07:44:57;;;;;;;6.20;1.70;;;6.50;97.20;;;;;;1700686;29;20211;-65
2023/03/11 07:45:49;;;;;;;6.60;2.28;;;6.50;97.20;;;;;;1700932;29;21003;-65
2023/03/11 07:46:41;;;;;;;4.38;1.75;;;6.50;97.20;;;;;;1700853;29;20237;-65
2023/03/11 07:47:31;;;;;;;3.97;1.55;;;6.50;97.20;;;;;;1700671;29;20214;-65
2023/03/11 07:48:23;;;;;;;3.73;2.87;;;6.50;97.20;;;;;;1700941;29;20203;-67
2023/03/11 07:49:15;;;;;;;4.20;1.30;;;6.50;97.20;;;;;;1700964;29;20214;-64
2023/03/11 07:50:07;;;;;;;5.55;1.90;;;6.60;97.20;;;;;;1700962;29;20218;-65
2023/03/11 07:51:03;;;;;;;4.82;1.50;;;6.60;97.20;;;;;;1703581;29;20218;-65
2023/03/11 07:51:55;;;;;;;5.38;1.27;;;6.60;97.20;;;;;;1707464;29;20233;-65
2023/03/11 07:52:45;;;;;;;3.05;1.60;;;6.60;97.20;;;;;;1706952;28;20688;-65
2023/03/11 07:53:39;;;;;;;4.70;1.37;;;6.50;97.20;;;;;;1707610;28;20656;-64
2023/03/11 07:54:30;;;;;;;4.20;1.50;;;6.50;97.20;;;;;;1707517;29;20210;-65
2023/03/11 07:55:21;;;;;;;4.17;1.50;;;6.50;97.20;;;;;;1707361;29;20203;-65
2023/03/11 07:56:14;;;;;;;5.65;1.80;;;6.60;97.20;;;;;;1707521;28;20210;-65
2023/03/11 07:57:07;;;;;;;4.22;1.20;;;6.60;97.20;;;;;;1707463;29;20202;-67
2023/03/11 07:57:58;;;;;;;6.15;1.83;;;6.70;97.20;;;;;;1707580;29;20210;-65
2023/03/11 07:58:50;;;;;;;2.90;1.20;;;6.70;97.20;;;;;;1707510;29;20202;-65
2023/03/11 07:59:41;;;;;;;2.72;1.17;;;6.70;97.20;;;;;;1707420;29;20323;-65
2023/03/11 08:00:32;;;;;;;5.40;1.40;;;6.70;97.20;;;;;;1707220;28;20319;-65
2023/03/11 08:01:26;;;;;;;2.40;1.45;;;6.80;97.20;;;;;;1703969;29;20247;-65
2023/03/11 08:02:17;;;;;;;3.53;1.30;;;6.80;97.20;;;;;;1707509;28;20704;-65
2023/03/11 08:03:08;;;;;;;4.00;1.25;;;6.80;97.20;;;;;;1707111;28;20207;-64
2023/03/11 08:04:00;;;;;;;5.07;1.37;;;6.90;97.20;;;;;;1707530;28;20207;-65
2023/03/11 08:04:52;;;;;;;1.85;1.20;;;6.90;97.20;;;;;;1707128;29;20668;-65
2023/03/11 08:05:44;;;;;;;3.90;1.65;;;6.90;97.20;;;;;;1707483;28;20385;-68
2023/03/11 08:06:36;;;;;;;9.32;1.77;;;6.90;97.20;;;;;;1707390;28;20217;-64
2023/03/11 08:07:30;;;;;;;6.20;1.50;;;7.00;97.20;;;;;;1707454;28;20892;-64
2023/03/11 08:08:21;;;;;;;2.30;1.38;;;7.00;97.20;;;;;;1707481;28;20216;-65
2023/03/11 08:09:13;;;;;;;2.97;1.50;;;7.10;97.20;;;;;;1707365;28;20215;-65
2023/03/11 08:10:05;;;;;;;2.58;1.17;;;7.10;97.20;;;;;;1707528;28;20218;-65
2023/03/11 08:10:57;;;;;;;3.90;1.23;;;7.20;97.20;;;;;;1704320;28;20647;-65
2023/03/11 08:11:47;;;;;;;3.83;1.40;;;7.30;97.20;;;;;;1704620;28;20661;-65
2023/03/11 08:12:39;;;;;;;4.80;1.30;;;7.30;97.20;;;;;;1704144;28;20709;-65
2023/03/11 08:13:30;;;;;;;5.15;1.35;;;7.40;97.20;;;;;;1704562;29;20195;-65
2023/03/11 08:14:22;;;;;;;2.53;1.30;;;7.40;97.20;;;;;;1704566;29;20199;-64
2023/03/11 08:15:12;;;;;;;2.67;1.10;;;7.50;97.20;;;;;;1704602;28;20447;-65
2023/03/11 08:16:05;;;;;;;3.23;1.30;;;7.60;97.20;;;;;;1703985;28;20199;-65
2023/03/11 08:16:56;;;;;;;1.88;1.10;;;7.70;97.20;;;;;;1704044;28;20203;-65
2023/03/11 08:17:48;;;;;;;4.40;1.00;;;7.80;97.20;;;;;;1702599;28;20217;-64
2023/03/11 08:18:39;;;;;;;3.00;1.35;;;7.90;97.20;;;;;;1703047;29;20584;-65
2023/03/11 08:19:30;;;;;;;2.50;1.00;;;8.10;97.20;;;;;;1704510;28;20571;-65
2023/03/11 08:20:22;;;;;;;4.40;1.35;;;8.20;97.20;;;;;;1703673;28;20450;-65
2023/03/11 08:21:17;;;;;;;3.80;1.38;;;8.40;97.20;;;;;;1703033;29;20198;-65
2023/03/11 08:22:07;;;;;;;3.35;1.10;;;8.50;97.20;;;;;;1704478;28;20263;-65
2023/03/11 08:22:59;;;;;;;4.40;1.47;;;8.60;97.20;;;;;;1704013;28;20191;-65
2023/03/11 08:23:55;;;;;;;4.40;1.00;;;8.70;97.20;;;;;;1702922;29;20571;-65
2023/03/11 08:24:51;;;;;;;3.40;1.27;;;8.70;97.20;;;;;;1703968;29;20203;-65
2023/03/11 08:25:44;;;;;;;2.90;0.98;;;8.70;97.20;;;;;;1703631;28;20194;-65
2023/03/11 08:26:36;;;;;;;3.88;1.50;;;8.70;97.20;;;;;;1705862;29;20206;-66
2023/03/11 08:27:27;;;;;;;2.10;1.10;;;8.70;97.20;;;;;;1702327;29;20623;-67
2023/03/11 08:28:19;;;;;;;5.25;1.20;;;8.70;97.20;;;;;;1702751;29;20245;-65
2023/03/11 08:29:10;;;;;;;2.58;1.10;;;8.70;97.20;;;;;;1704171;28;20677;-65
2023/03/11 08:30:01;;;;;;;4.07;1.30;;;8.70;97.20;;;;;;1703596;28;20945;-64
2023/03/11 08:30:52;;;;;;;4.03;1.48;;;8.80;97.20;;;;;;1702819;29;20261;-64
2023/03/11 08:31:44;;;;;;;2.37;1.07;;;8.80;97.20;;;;;;1703615;29;20221;-64
2023/03/11 08:32:35;;;;;;;3.00;1.27;;;8.80;97.20;;;;;;1704352;28;20572;-67
2023/03/11 08:33:27;;;;;;;3.10;1.40;;;8.80;97.20;;;;;;1703207;28;20224;-65
2023/03/11 08:34:19;;;;;;;3.75;1.20;;;8.80;97.20;;;;;;1702715;29;21127;-66
2023/03/11 08:35:11;;;;;;;2.65;1.10;;;8.80;97.20;;;;;;1704221;28;20202;-65
2023/03/11 08:36:04;;;;;;;3.00;0.95;;;8.80;97.20;;;;;;1704027;28;20649;-65
2023/03/11 08:36:55;;;;;;;3.95;0.95;;;8.80;97.20;;;;;;1704394;28;20206;-65
2023/03/11 08:37:46;;;;;;;2.33;1.00;;;8.90;97.20;;;;;;1703060;28;20234;-65
2023/03/11 08:38:40;;;;;;;2.87;1.00;;;8.90;97.20;;;;;;1702928;29;20664;-65
2023/03/11 08:39:31;;;;;;;2.63;1.23;;;8.90;97.20;;;;;;1704816;29;20344;-65
2023/03/11 08:40:24;;;;;;;2.20;1.10;;;9.00;97.20;;;;;;1703595;28;20253;-64
2023/03/11 08:41:15;;;;;;;3.22;1.13;;;9.00;97.20;;;;;;1703031;29;20822;-65
2023/03/11 08:42:07;;;;;;;4.28;1.33;;;9.10;97.20;;;;;;1703926;29;20196;-65
2023/03/11 08:42:57;;;;;;;8.43;1.50;;;9.10;97.20;;;;;;1704055;28;20207;-63
2023/03/11 08:43:51;;;;;;;8.37;1.23;;;9.00;97.20;;;;;;1704461;29;20281;-63
2023/03/11 08:44:42;;;;;;;4.35;1.17;;;9.00;97.20;;;;;;1703761;28;20701;-65
2023/03/11 08:45:33;;;;;;;3.03;1.15;;;8.90;97.20;;;;;;1702946;29;20194;-64
2023/03/11 08:46:26;;;;;;;4.00;0.90;;;8.90;97.20;;;;;;1705415;29;20195;-64
2023/03/11 08:47:17;;;;;;;2.05;1.00;;;8.90;97.20;;;;;;1703141;29;20240;-64
2023/03/11 08:48:09;;;;;;;1.95;1.00;;;9.00;97.20;;;;;;1704295;29;20248;-65
2023/03/11 08:49:02;;;;;;;2.65;1.42;;;9.00;97.20;;;;;;1703899;28;20220;-65
2023/03/11 08:49:52;;;;;;;4.15;1.40;;;9.10;97.20;;;;;;1702940;29;20298;-65
2023/03/11 08:50:44;;;;;;;4.13;1.53;;;9.10;97.20;;;;;;1703485;29;20221;-65
2023/03/11 08:51:37;;;;;;;4.95;1.08;;;9.20;97.20;;;;;;1704262;28;20203;-64
2023/03/11 08:52:28;;;;;;;3.08;1.10;;;9.40;97.20;;;;;;1702704;28;20199;-64
2023/03/11 08:53:19;;;;;;;3.58;1.02;;;9.50;97.20;;;;;;1702820;29;20577;-65
2023/03/11 08:54:12;;;;;;;2.33;0.90;;;9.60;97.20;;;;;;1704297;28;20191;-66
2023/03/11 08:55:04;;;;;;;3.42;1.30;;;9.70;97.20;;;;;;1703428;28;20823;-65
2023/03/11 08:55:56;;;;;;;2.78;0.77;;;9.80;97.20;;;;;;1703375;29;20229;-64
2023/03/11 08:56:46;;;;;;;1.58;1.13;;;9.90;97.20;;;;;;1704174;28;20230;-65
2023/03/11 08:57:38;;;;;;;3.07;1.63;;;9.90;97.20;;;;;;1704389;28;20199;-63
2023/03/11 08:58:29;;;;;;;4.63;0.90;;;9.90;97.20;;;;;;1704374;29;20234;-65
2023/03/11 08:59:21;;;;;;;4.17;1.00;;;10.00;97.20;;;;;;1703842;28;20492;-64
2023/03/11 09:00:12;;;;;;;2.63;1.00;;;10.00;97.20;;;;;;1702881;29;20482;-65
2023/03/11 09:01:04;;;;;;;1.90;0.73;;;10.10;97.20;;;;;;1703457;29;20672;-65
2023/03/11 09:01:55;;;;;;;1.73;1.02;;;10.30;97.20;;;;;;1704225;28;20207;-65
2023/03/11 09:02:47;;;;;;;2.47;1.00;;;10.40;97.20;;;;;;1702502;28;20227;-66
2023/03/11 09:03:39;;;;;;;3.30;1.00;;;10.60;97.20;;;;;;1702972;29;20596;-65
2023/03/11 09:04:31;;;;;;;3.33;0.80;;;10.80;97.20;;;;;;1704322;28;20662;-65
2023/03/11 09:05:21;;;;;;;2.95;0.90;;;11.00;97.20;;;;;;1703617;28;20206;-65
2023/03/11 09:06:15;;;;;;;2.80;0.90;;;11.20;97.20;;;;;;1704539;29;20201;-65
2023/03/11 09:07:09;;;;;;;1.90;0.93;;;11.40;97.20;;;;;;1703092;28;20226;-65
2023/03/11 09:08:02;;;;;;;1.80;0.95;;;11.50;97.20;;;;;;1703116;29;20567;-65
2023/03/11 09:08:54;;;;;;;4.07;1.20;;;11.80;97.20;;;;;;1704263;28;20199;-66
2023/03/11 09:09:44;;;;;;;3.58;1.00;;;12.00;97.20;;;;;;1703222;28;20214;-66
2023/03/11 09:10:38;;;;;;;2.00;0.83;;;12.20;97.20;;;;;;1702857;29;20210;-65
2023/03/11 09:11:28;;;;;;;2.88;1.00;;;12.40;97.20;;;;;;1704160;29;20198;-65
2023/03/11 09:12:20;;;;;;;1.50;1.10;;;12.60;97.20;;;;;;1703984;28;20198;-65
2023/03/11 09:13:11;;;;;;;1.58;0.90;;;12.80;97.20;;;;;;1702492;29;20199;-65
2023/03/11 09:14:03;;;;;;;3.63;1.23;;;12.90;97.20;;;;;;1703227;29;20206;-66
2023/03/11 09:14:55;;;;;;;2.72;1.60;;;13.10;97.20;;;;;;1704213;28;20210;-65
2023/03/11 09:15:47;;;;;;;1.85;1.00;;;13.20;97.20;;;;;;1703115;28;20194;-65
2023/03/11 09:16:39;;;;;;;1.63;0.80;;;13.30;97.20;;;;;;1703392;29;20592;-65
2023/03/11 09:17:30;;;;;;;2.05;1.10;;;13.40;97.20;;;;;;1704211;28;20206;-65
2023/03/11 09:18:22;;;;;;;2.63;1.10;;;13.50;97.20;;;;;;1703636;28;20201;-66
2023/03/11 09:19:13;;;;;;;1.55;0.90;;;13.70;97.20;;;;;;1702920;29;20203;-65
2023/03/11 09:20:05;;;;;;;3.45;1.10;;;13.90;97.20;;;;;;1703491;29;20214;-67
2023/03/11 09:20:58;;;;;;;2.38;1.30;;;14.00;97.20;;;;;;1704159;28;20572;-68
2023/03/11 09:21:48;;;;;;;2.30;1.00;;;14.10;97.20;;;;;;1704271;29;20273;-68
2023/03/11 09:22:42;;;;;;;4.03;1.53;;;14.10;97.20;;;;;;1703875;28;20222;-67
2023/03/11 09:23:32;;;;;;;2.08;1.00;;;14.10;97.20;;;;;;1702860;29;20206;-68
2023/03/11 09:24:24;;;;;;;2.03;0.93;;;14.10;97.20;;;;;;1703410;29;20196;-68
2023/03/11 09:25:15;;;;;;;3.30;1.40;;;14.00;97.20;;;;;;1704153;28;20232;-67
2023/03/11 09:26:07;;;;;;;2.00;1.30;;;14.00;97.20;;;;;;1703791;28;20206;-68
2023/03/11 09:26:57;;;;;;;2.35;1.02;;;14.00;97.20;;;;;;1706768;28;20970;-68
2023/03/11 09:27:49;;;;;;;4.20;1.80;;;13.90;97.20;;;;;;1704087;29;20686;-69
2023/03/11 09:28:41;;;;;;;2.83;1.20;;;13.90;97.20;;;;;;1703731;28;20241;-68
2023/03/11 09:29:32;;;;;;;1.95;0.90;;;13.80;97.20;;;;;;1702948;29;20210;-68
2023/03/11 09:30:24;;;;;;;2.23;1.00;;;13.80;97.20;;;;;;1703174;29;20290;-68
2023/03/11 09:31:15;;;;;;;1.92;0.88;;;13.70;97.20;;;;;;1704244;28;20204;-67
2023/03/11 09:32:07;;;;;;;2.25;1.38;;;13.80;97.20;;;;;;1702983;28;20218;-67
2023/03/11 09:32:58;;;;;;;2.35;1.17;;;13.80;97.20;;;;;;1702631;29;20198;-68
2023/03/11 09:33:51;;;;;;;2.70;1.00;;;13.90;97.20;;;;;;1701919;28;20200;-70
2023/03/11 09:34:42;;;;;;;2.00;0.80;;;14.10;97.20;;;;;;1696558;28;20211;-67
2023/03/11 09:35:34;;;;;;;2.50;1.00;;;14.30;97.20;;;;;;1705527;29;20286;-68
2023/03/11 09:36:24;;;;;;;1.85;0.90;;;14.50;97.20;;;;;;1705398;29;20207;-68
2023/03/11 09:37:16;;;;;;;2.80;1.13;;;14.90;97.20;;;;;;1705579;28;20198;-69
2023/03/11 09:38:08;;;;;;;1.75;1.02;;;15.30;97.20;;;;;;1705797;29;20270;-68
2023/03/11 09:39:01;;;;;;;2.63;1.00;;;15.90;97.20;;;;;;1706283;29;20579;-67
2023/03/11 09:39:51;;;;;;;2.38;0.93;;;16.90;97.20;;;;;;1706272;28;20213;-69
2023/03/11 09:40:53;;;;;;;2.40;0.73;;;18.20;97.20;;;;;;1706436;28;20213;-66
2023/03/11 09:41:51;;;;;;;3.65;1.23;;;19.90;97.20;;;;;;1707154;29;20210;-66
2023/03/11 09:42:50;;;;;;;2.45;1.15;;;21.50;94.20;;;;;;1706705;29;20218;-66
2023/03/11 09:43:52;;;;;;;1.00;0.68;;;22.80;92.50;;;;;;1706995;28;20240;-66
2023/03/11 09:44:50;;;;;;;2.75;1.10;;;24.00;89.20;;;;;;1707042;28;20713;-64
2023/03/11 09:45:47;;;;;;;3.15;0.80;;;25.20;87.00;;;;;;1707165;28;20233;-65
2023/03/11 09:47:19;;;;;;;1.98;0.80;;;26.40;85.20;;;;;;1706806;28;20274;-68
2023/03/11 09:48:23;;;;;;;1.77;0.95;;;27.00;80.70;;;;;;1708202;29;20238;-69
2023/03/11 09:49:23;;;;;;;2.22;0.80;;;26.30;79.90;;;;;;1708156;29;20210;-69
2023/03/11 09:50:30;;;;;;;1.38;0.80;;;25.20;78.90;;;;;;1707819;29;20207;-68
2023/03/11 09:51:26;;;;;;;2.08;0.90;;;23.70;79.70;;;;;;1700455;29;20204;-68
2023/03/11 09:52:23;;;;;;;4.15;1.35;;;22.60;80.90;;;;;;1701763;29;20200;-67
2023/03/11 09:53:29;;;;;;;4.20;1.65;;;21.60;82.40;;;;;;1701263;29;20207;-66
2023/03/11 09:54:20;;;;;;;1.80;0.90;;;20.60;84.30;;;;;;1704103;28;20215;-66
2023/03/11 09:55:29;;;;;;;1.42;1.00;;;19.70;83.90;;;;;;1714765;28;20289;-65
2023/03/11 09:56:23;;;;;;;1.50;1.30;;;19.00;84.80;;;;;;1711880;28;20239;-66
2023/03/11 09:57:18;;;;;;;1.30;1.08;;;18.50;86.30;;;;;;1708201;29;20207;-65
2023/03/11 09:58:14;;;;;;;3.22;1.10;;;18.10;87.80;;;;;;1708117;29;20257;-65
2023/03/11 09:59:08;;;;;;;1.42;1.00;;;17.70;88.30;;;;;;1708038;29;20600;-65
2023/03/11 10:00:01;;;;;;;1.65;0.93;;;17.20;88.40;;;;;;1708298;29;20202;-66
2023/03/11 10:00:52;;;;;;;5.75;1.77;;;16.80;89.30;;;;;;1708248;28;20233;-64
2023/03/11 10:01:47;;;;;;;2.50;0.80;;;16.50;90.10;;;;;;1708278;29;20202;-65
2023/03/11 10:02:40;;;;;;;2.10;0.90;;;16.10;90.60;;;;;;1707879;28;20198;-66
2023/03/11 10:03:34;;;;;;;1.48;1.00;;;15.80;91.60;;;;;;1708052;29;20285;-65
2023/03/11 10:04:30;;;;;;;2.45;0.70;;;15.50;92.10;;;;;;1708080;29;20214;-66
2023/03/11 10:05:25;;;;;;;1.38;0.80;;;15.20;92.90;;;;;;1708137;29;20545;-65
2023/03/11 10:06:21;;;;;;;2.33;1.02;;;14.90;93.00;;;;;;1707954;29;20202;-65
2023/03/11 10:07:20;;;;;;;3.15;1.23;;;14.60;94.00;;;;;;1704611;28;20210;-67
2023/03/11 10:08:21;;;;;;;1.35;0.80;;;14.30;94.60;;;;;;1702279;29;20286;-65
2023/03/11 10:09:33;;;;;;;1.60;1.13;;;14.10;94.90;;;;;;1707883;28;20210;-65
2023/03/11 10:10:27;;;;;;;3.80;1.45;;;13.80;94.80;;;;;;1708181;28;20582;-68
2023/03/11 10:11:37;;;;;;;3.03;0.95;;;13.60;95.60;;;;;;1707892;28;20230;-68
2023/03/11 10:12:43;;;;;;;1.75;1.00;;;13.40;96.40;;;;;;1707957;29;20262;-68
2023/03/11 10:13:39;;;;;;;2.65;0.73;;;13.30;97.10;;;;;;1701347;29;20231;-67
2023/03/11 10:14:42;;;;;;;3.00;1.10;;;13.10;97.20;;;;;;1701422;29;20214;-68
2023/03/11 10:15:40;;;;;;;1.05;0.85;;;13.00;97.20;;;;;;1701481;29;20215;-67
2023/03/11 10:16:38;;;;;;;3.05;1.10;;;13.00;97.20;;;;;;1701645;29;20824;-68
2023/03/11 10:18:01;;;;;;;5.15;1.05;;;12.90;97.20;;;;;;1701571;29;20262;-68
2023/03/11 10:19:01;;;;;;;2.45;0.90;;;12.90;97.20;;;;;;1701179;29;20199;-67
2023/03/11 10:19:59;;;;;;;2.00;0.75;;;12.80;97.20;;;;;;1701545;29;20211;-67
2023/03/11 10:20:56;;;;;;;1.88;0.93;;;12.90;97.20;;;;;;1701482;29;20229;-67
2023/03/11 10:21:57;;;;;;;2.92;1.10;;;13.00;97.20;;;;;;1701601;29;20203;-66
2023/03/11 10:22:56;;;;;;;2.22;1.10;;;13.90;97.20;;;;;;1702244;29;20211;-68
2023/03/11 10:24:02;;;;;;;1.40;0.90;;;15.90;97.20;;;;;;1707832;29;20203;-69
2023/03/11 10:25:04;;;;;;;2.13;1.20;;;18.10;96.10;;;;;;1707995;29;20206;-65
2023/03/11 10:26:02;;;;;;;2.10;0.80;;;20.20;93.20;;;;;;1708069;28;20207;-65
2023/03/11 10:26:58;;;;;;;0.95;0.70;;;21.40;90.10;;;;;;1708121;29;20214;-65
2023/03/11 10:27:54;;;;;;;2.10;0.98;;;22.50;87.20;;;;;;1708077;29;20290;-67
2023/03/11 10:28:50;;;;;;;0.90;0.70;;;23.70;85.30;;;;;;1707794;29;20238;-66
2023/03/11 10:29:50;;;;;;;2.33;0.80;;;24.10;83.20;;;;;;1708014;29;20206;-66
2023/03/11 10:30:44;;;;;;;1.60;0.80;;;24.10;81.70;;;;;;1707928;29;20238;-65
2023/03/11 10:31:41;;;;;;;1.60;0.90;;;23.70;80.70;;;;;;1701392;29;20275;-66
2023/03/11 10:32:39;;;;;;;1.45;0.73;;;23.00;80.60;;;;;;1701582;29;20576;-66
2023/03/11 10:33:37;;;;;;;1.52;0.80;;;22.20;81.20;;;;;;1707595;29;20195;-66
2023/03/11 10:34:32;;;;;;;1.75;0.85;;;21.30;81.90;;;;;;1707781;29;20249;-66
2023/03/11 10:35:28;;;;;;;1.52;0.80;;;20.50;81.60;;;;;;1708021;28;20665;-66
2023/03/11 10:36:23;;;;;;;2.72;1.30;;;19.80;83.40;;;;;;1708122;29;20687;-66
2023/03/11 10:37:19;;;;;;;1.60;1.00;;;19.00;83.60;;;;;;1707964;29;20202;-66
2023/03/11 10:38:14;;;;;;;2.45;1.10;;;18.30;84.20;;;;;;1708226;29;20244;-65
2023/03/11 10:39:09;;;;;;;3.00;1.30;;;17.60;85.20;;;;;;1707632;29;20668;-64